Atlantic - Newfoundland: Past 24 Hour Conditions

 

J.A. Douglas McCurdy Sydney Airport

04:00 PM AST 26 November 2014
This table is a summary of hourly weather conditions for the past 24 hours.
Date / Time
(AST)
Wind(knots) Conditions Visibility(km) Pressure(kPa) Air tempC) Relative humidity(%) Dew pointC)
26 November 2014
16:00 NNW 6 Cloudy 24 102.2 6 55 -3
15:00 NW 8 Cloudy 24 102.2 6 53 -3
14:00 WNW 9 Cloudy 24 102.1 7 51 -3
13:00 NW 11 gust 19 Cloudy 24 102.2 8 50 -2
12:00 WNW 18 gust 24 Mostly Cloudy 24 102.1 7 51 -2
11:00 WNW 16 gust 22 Mostly Cloudy 24 102.1 8 52 -2
10:00 WNW 14 gust 23 Cloudy 24 102.0 7 54 -1
9:00 W 12 Cloudy 24 102.0 7 55 -1
8:00 W 11 Cloudy 24 101.9 7 56 -1
7:00 WSW 10 Cloudy 24 101.7 7 58 -1
6:00 W 11 Partly Cloudy 24 101.7 7 56 -1
5:00 W 8 Mostly Cloudy 24 101.6 6 61 -1
4:00 WNW 10 gust 16 Mostly Cloudy 24 101.5 7 57 -1
3:00 W 12 Partly Cloudy 24 101.4 8 61 1
2:00 W 8 Partly Cloudy 24 101.3 8 70 3
1:00 NNW 6 Partly Cloudy 24 101.1 9 88 8
0:00 WSW 12 Mostly Cloudy 24 101.0 11 82 8
25 November 2014
23:00 WSW 12 gust 18 Mostly Cloudy 24 101.0 11 82 8
22:00 SW 11 gust 18 Mostly Cloudy 24 100.9 12 77 8
21:00 SW 12 gust 19 Mostly Cloudy 24 100.8 12 79 8
20:00 SSW 8 Mostly Cloudy 24 100.8 11 84 8
19:00 SW 10 gust 17 Mostly Cloudy 24 100.8 12 79 9
18:00 SW 11 Mostly Cloudy 24 100.9 13 80 9
17:00 SW 10 Mostly Cloudy 24 100.8 13 78 9
16:00 SSW 11 gust 17 Mostly Cloudy 24 100.8 14 79 10
 
Map of Atlantic - Newfoundland marine weather areas Southwestern Grand Banks - 44138 Banquereau - 44139 Tail of the Bank - 44140 Nickerson Bank - 44251 Northeast Burgeo Bank - 44255 Blanc-Sablon Airport Cap Whittle Chevery Natashquan Airport Heath Point Miscou Island Grand Étang Ingonish Beach North Mountain St.Paul Island J.A. Douglas McCurdy Sydney Airport Charlottetown Airport East Point North Cape Argentia Bonavista Burgeo Cape Race Corner Brook Daniel's Harbour Englee Ferolle Point La Scie Port aux Basques Rocky Harbour Sagona Island St. Anthony Airport St. John's Int'l Airport St. Lawrence Stephenville Airport Twillingate Winterland Wreckhouse Cartwright Airport Mary's Harbour Grates Cove Pool's Island Marticot Island Long Pond Îles de la Madeleine Airport
Legend: buoyBuoy land stationLand Station